Time;durP1;ratioP1;P1;durP2;ratioP2;P2;SDS_P1;SDS_P2;PMS_P1;PMS_P2;Temp;Humidity;BMP_temperature;BMP_pressure;BME280_temperature;BME280_humidity;BME280_pressure;Samples;Min_cycle;Max_cycle;Signal;HPM_P1;HPM_P2
2021/12/23 00:00:25;;;;;;;44.05;29.55;;;-3.50;99.90;;;;;;5011219;28;20222;-76
2021/12/23 00:02:52;;;;;;;40.63;29.08;;;-3.50;99.90;;;;;;5011685;28;20298;-76
2021/12/23 00:05:19;;;;;;;43.72;30.08;;;-3.50;99.90;;;;;;5011806;28;20585;-76
2021/12/23 00:07:46;;;;;;;42.13;30.33;;;-3.50;99.90;;;;;;5024899;28;20237;-76
2021/12/23 00:10:13;;;;;;;43.95;28.48;;;-3.50;99.90;;;;;;5011912;28;20202;-76
2021/12/23 00:12:43;;;;;;;40.75;27.27;;;-3.50;99.90;;;;;;5010523;28;20764;-76
2021/12/23 00:15:22;;;;;;;48.47;29.75;;;-3.50;99.90;;;;;;5010984;28;20209;-76
2021/12/23 00:18:02;;;;;;;44.15;30.67;;;-3.50;99.90;;;;;;5011375;28;20585;-76
2021/12/23 00:23:27;;;;;;;44.72;29.10;;;-3.50;99.90;;;;;;4995502;28;20246;-81
2021/12/23 00:25:58;;;;;;;43.83;29.58;;;-3.50;99.90;;;;;;5011205;28;20293;-75
2021/12/23 00:28:27;;;;;;;44.00;29.67;;;-3.50;99.90;;;;;;5001259;28;20195;-76
2021/12/23 00:30:54;;;;;;;43.97;30.38;;;-3.50;99.90;;;;;;5001896;28;20233;-76
2021/12/23 00:33:23;;;;;;;42.15;28.40;;;-3.50;99.90;;;;;;5011991;28;20222;-76
2021/12/23 00:35:52;;;;;;;43.92;28.15;;;-3.50;99.90;;;;;;5011354;28;20217;-75
2021/12/23 00:38:23;;;;;;;46.38;28.95;;;-3.50;99.90;;;;;;5012374;28;20219;-75
2021/12/23 00:40:52;;;;;;;43.47;29.10;;;-3.50;99.90;;;;;;4991427;28;20266;-76
2021/12/23 00:43:19;;;;;;;42.88;29.60;;;-3.50;99.90;;;;;;5010095;28;20677;-76
2021/12/23 00:45:48;;;;;;;43.85;29.27;;;-3.50;99.90;;;;;;5000237;28;20209;-76
2021/12/23 00:48:15;;;;;;;42.80;28.10;;;-3.50;99.90;;;;;;5009946;28;20700;-77
2021/12/23 00:50:42;;;;;;;42.63;28.83;;;-3.50;99.90;;;;;;5010414;28;20757;-76
2021/12/23 00:53:10;;;;;;;46.67;28.45;;;-3.50;99.90;;;;;;5015733;28;20253;-76
2021/12/23 00:55:38;;;;;;;46.38;29.27;;;-3.50;99.90;;;;;;5010521;28;20195;-76
2021/12/23 00:58:05;;;;;;;40.65;28.13;;;-3.50;99.90;;;;;;5011569;28;20316;-76
2021/12/23 01:00:32;;;;;;;43.00;28.30;;;-3.50;99.90;;;;;;5011118;28;20230;-77
2021/12/23 01:03:01;;;;;;;46.55;29.90;;;-3.50;99.90;;;;;;5010533;28;20202;-76
2021/12/23 01:05:28;;;;;;;44.15;29.25;;;-3.50;99.90;;;;;;5011466;28;20720;-76
2021/12/23 01:07:55;;;;;;;50.03;29.20;;;-3.50;99.90;;;;;;5009667;28;20237;-76
2021/12/23 01:10:24;;;;;;;45.28;29.63;;;-3.50;99.90;;;;;;5011048;28;20232;-76
2021/12/23 01:12:57;;;;;;;45.33;28.23;;;-3.50;99.90;;;;;;5011607;28;20218;-76
2021/12/23 01:15:50;;;;;;;45.65;28.92;;;-3.50;99.90;;;;;;5011036;28;20658;-75
2021/12/23 01:18:21;;;;;;;45.63;27.75;;;-3.50;99.90;;;;;;4999603;28;20293;-76
2021/12/23 01:20:52;;;;;;;45.50;30.02;;;-3.40;99.90;;;;;;5013908;28;20724;-76
2021/12/23 01:23:22;;;;;;;42.92;27.70;;;-3.40;99.90;;;;;;5014291;28;20241;-76
2021/12/23 01:25:50;;;;;;;44.88;29.00;;;-3.40;99.90;;;;;;5013763;28;20237;-75
2021/12/23 01:28:17;;;;;;;46.22;28.95;;;-3.40;99.90;;;;;;5014446;28;20190;-76
2021/12/23 01:30:44;;;;;;;42.75;27.27;;;-3.40;99.90;;;;;;5014000;28;20217;-75
2021/12/23 01:33:12;;;;;;;44.05;28.13;;;-3.50;99.90;;;;;;5013609;28;20701;-76
2021/12/23 01:35:41;;;;;;;44.25;28.60;;;-3.50;99.90;;;;;;5014590;28;20224;-76
2021/12/23 01:38:09;;;;;;;44.25;29.58;;;-3.50;99.90;;;;;;5014281;28;20208;-75
2021/12/23 01:40:37;;;;;;;47.50;30.42;;;-3.60;99.90;;;;;;5013642;28;20217;-75
2021/12/23 01:43:04;;;;;;;42.58;28.40;;;-3.70;99.90;;;;;;5013698;28;20285;-76
2021/12/23 01:45:34;;;;;;;44.65;29.25;;;-3.70;99.90;;;;;;5013271;28;20269;-75
2021/12/23 01:48:02;;;;;;;44.85;29.73;;;-3.70;99.90;;;;;;5014063;28;20281;-75
2021/12/23 01:50:30;;;;;;;48.35;30.30;;;-3.70;99.90;;;;;;5013582;28;20237;-75
2021/12/23 01:53:00;;;;;;;44.88;29.15;;;-3.70;99.90;;;;;;5014878;28;20260;-76
2021/12/23 01:55:28;;;;;;;42.60;28.30;;;-3.60;99.90;;;;;;5013829;28;20199;-75
2021/12/23 01:57:57;;;;;;;43.20;28.52;;;-3.60;99.90;;;;;;5013928;28;20665;-75
2021/12/23 02:00:27;;;;;;;47.35;30.38;;;-3.50;99.90;;;;;;5013458;28;20565;-76
2021/12/23 02:02:56;;;;;;;42.13;28.38;;;-3.50;99.90;;;;;;5013190;28;20257;-76
2021/12/23 02:05:23;;;;;;;44.50;28.45;;;-3.50;99.90;;;;;;5013452;28;20595;-75
2021/12/23 02:07:50;;;;;;;46.08;28.40;;;-3.40;99.90;;;;;;5012759;28;20191;-76
2021/12/23 02:10:19;;;;;;;42.50;27.08;;;-3.40;99.90;;;;;;5013072;28;20265;-75
2021/12/23 02:12:48;;;;;;;43.70;29.70;;;-3.40;99.90;;;;;;5020307;28;20221;-75
2021/12/23 02:15:17;;;;;;;39.00;26.13;;;-3.40;99.90;;;;;;5033866;28;20212;-75
2021/12/23 02:17:45;;;;;;;42.60;28.63;;;-3.30;99.90;;;;;;5032371;28;20205;-75
2021/12/23 02:20:15;;;;;;;41.90;28.42;;;-3.30;99.90;;;;;;5014667;28;20215;-76
2021/12/23 02:22:44;;;;;;;40.22;27.67;;;-3.20;99.90;;;;;;5013345;28;20552;-76
2021/12/23 02:25:12;;;;;;;40.88;28.00;;;-3.20;99.90;;;;;;5013458;28;20734;-75
2021/12/23 02:27:40;;;;;;;40.65;26.33;;;-3.20;99.90;;;;;;5015528;28;20191;-75
2021/12/23 02:30:10;;;;;;;40.70;26.13;;;-3.20;99.90;;;;;;5012745;28;20241;-76
2021/12/23 02:32:38;;;;;;;41.10;26.55;;;-3.20;99.90;;;;;;5012430;28;20226;-76
2021/12/23 02:35:06;;;;;;;39.83;28.42;;;-3.20;99.90;;;;;;5013416;28;20230;-75
2021/12/23 02:37:34;;;;;;;41.30;27.77;;;-3.20;99.90;;;;;;5012377;28;20206;-76
2021/12/23 02:40:01;;;;;;;39.25;26.67;;;-3.20;99.90;;;;;;5012117;28;20229;-77
2021/12/23 02:42:28;;;;;;;37.17;25.60;;;-3.20;99.90;;;;;;5013184;28;20267;-75
2021/12/23 02:44:56;;;;;;;39.13;25.67;;;-3.20;99.90;;;;;;5012062;28;20645;-76
2021/12/23 02:47:23;;;;;;;35.40;24.48;;;-3.20;99.90;;;;;;5000065;28;20201;-76
2021/12/23 02:49:50;;;;;;;37.10;26.23;;;-3.20;99.90;;;;;;5002761;28;20265;-76
2021/12/23 02:52:17;;;;;;;37.47;24.83;;;-3.20;99.90;;;;;;5006307;28;20321;-75
2021/12/23 02:54:55;;;;;;;37.67;26.00;;;-3.20;99.90;;;;;;5013465;28;20402;-75
2021/12/23 02:57:21;;;;;;;37.53;25.98;;;-3.10;99.90;;;;;;5011709;28;20202;-75
2021/12/23 02:59:48;;;;;;;36.53;25.10;;;-3.20;99.90;;;;;;5012348;28;20291;-75
2021/12/23 03:02:16;;;;;;;37.33;25.92;;;-3.10;99.90;;;;;;5011664;28;20202;-75
2021/12/23 03:04:43;;;;;;;34.80;25.05;;;-3.10;99.90;;;;;;5012914;28;20222;-76
2021/12/23 03:07:10;;;;;;;37.20;24.98;;;-3.10;99.90;;;;;;5011523;28;20289;-76
2021/12/23 03:09:37;;;;;;;34.30;24.75;;;-3.10;99.90;;;;;;5012554;28;20199;-76
2021/12/23 03:12:06;;;;;;;36.38;24.92;;;-3.00;99.90;;;;;;5011510;28;20217;-76
2021/12/23 03:14:34;;;;;;;37.90;24.45;;;-3.00;99.90;;;;;;5012809;28;20198;-75
2021/12/23 03:17:00;;;;;;;33.83;23.95;;;-3.00;99.90;;;;;;5012371;28;20199;-76
2021/12/23 03:19:27;;;;;;;34.90;24.92;;;-3.00;99.90;;;;;;5012293;28;20753;-78
2021/12/23 03:21:54;;;;;;;35.15;23.83;;;-3.00;99.90;;;;;;5012083;28;20215;-75
2021/12/23 03:24:21;;;;;;;37.55;24.98;;;-3.00;99.90;;;;;;5011814;28;20690;-76
2021/12/23 03:26:48;;;;;;;37.20;24.02;;;-3.00;99.90;;;;;;5011467;28;20210;-76
2021/12/23 03:29:16;;;;;;;34.67;23.38;;;-3.10;99.90;;;;;;5012261;28;20203;-75
2021/12/23 03:31:43;;;;;;;35.47;24.10;;;-3.10;99.90;;;;;;5010434;28;20292;-75
2021/12/23 03:34:10;;;;;;;34.85;24.42;;;-3.10;99.90;;;;;;5010544;28;20329;-76
2021/12/23 03:36:37;;;;;;;35.58;24.42;;;-3.10;99.90;;;;;;5012224;28;20257;-75
2021/12/23 03:39:06;;;;;;;34.13;24.65;;;-3.10;99.90;;;;;;5012447;28;20618;-75
2021/12/23 03:41:33;;;;;;;32.40;22.77;;;-3.20;99.90;;;;;;5011613;28;20218;-76
2021/12/23 03:44:00;;;;;;;32.40;22.90;;;-3.20;99.90;;;;;;5016369;28;20661;-76
2021/12/23 03:46:28;;;;;;;32.95;22.85;;;-3.20;99.90;;;;;;5010154;28;20198;-76
2021/12/23 03:48:55;;;;;;;34.05;23.98;;;-3.10;99.90;;;;;;5011101;28;20206;-75
2021/12/23 03:51:22;;;;;;;30.58;21.63;;;-3.10;99.90;;;;;;5010408;28;20218;-76
2021/12/23 03:53:49;;;;;;;35.78;23.45;;;-3.10;99.90;;;;;;5011713;28;20226;-75
2021/12/23 03:56:18;;;;;;;32.40;23.23;;;-3.10;99.90;;;;;;5004383;28;20214;-75
2021/12/23 03:58:45;;;;;;;33.55;22.48;;;-3.10;99.90;;;;;;4994302;28;20203;-76
2021/12/23 04:01:14;;;;;;;29.38;21.40;;;-3.10;99.90;;;;;;5011233;28;20225;-75
2021/12/23 04:03:42;;;;;;;32.75;21.38;;;-3.10;99.90;;;;;;5012322;28;20229;-75
2021/12/23 04:06:09;;;;;;;31.02;21.70;;;-3.00;99.90;;;;;;5010609;28;20227;-75
2021/12/23 04:08:37;;;;;;;33.38;22.80;;;-3.00;99.90;;;;;;5011802;28;20202;-76
2021/12/23 04:11:03;;;;;;;33.65;23.85;;;-3.00;99.90;;;;;;5011054;28;20574;-76
2021/12/23 04:13:32;;;;;;;31.92;22.15;;;-3.00;99.90;;;;;;5011471;28;20245;-75
2021/12/23 04:15:58;;;;;;;32.92;23.70;;;-3.00;99.90;;;;;;4996141;28;20254;-75
2021/12/23 04:18:26;;;;;;;31.88;24.08;;;-3.00;99.90;;;;;;5031584;28;20300;-75
2021/12/23 04:20:54;;;;;;;30.80;22.17;;;-3.00;99.90;;;;;;5016447;28;20225;-76
2021/12/23 04:23:22;;;;;;;31.17;21.95;;;-3.00;99.90;;;;;;5011869;28;20198;-75
2021/12/23 04:25:50;;;;;;;32.88;21.25;;;-2.90;99.90;;;;;;5012089;28;20202;-75
2021/12/23 04:28:17;;;;;;;31.85;22.92;;;-2.90;99.90;;;;;;5011478;28;20712;-75
2021/12/23 04:30:44;;;;;;;31.95;22.42;;;-2.90;99.90;;;;;;5003574;28;20229;-75
2021/12/23 04:33:11;;;;;;;27.88;21.15;;;-2.90;99.90;;;;;;5010743;28;20222;-76
2021/12/23 04:35:38;;;;;;;29.98;20.88;;;-2.80;99.90;;;;;;5010286;28;20199;-75
2021/12/23 04:38:06;;;;;;;27.45;20.70;;;-2.80;99.90;;;;;;5011623;28;20236;-76
2021/12/23 04:40:34;;;;;;;29.38;21.02;;;-2.80;99.90;;;;;;5010006;28;20215;-76
2021/12/23 04:43:02;;;;;;;30.30;21.83;;;-2.80;99.90;;;;;;5011251;28;20198;-76
2021/12/23 04:45:29;;;;;;;30.80;22.70;;;-2.80;99.90;;;;;;5010602;28;20190;-75
2021/12/23 04:47:56;;;;;;;30.70;20.98;;;-2.80;99.90;;;;;;5011813;28;20198;-75
2021/12/23 04:50:23;;;;;;;29.85;20.73;;;-2.80;99.90;;;;;;5007542;28;20272;-77
2021/12/23 04:52:51;;;;;;;30.35;22.65;;;-2.80;99.90;;;;;;5003620;28;20227;-78
2021/12/23 04:55:20;;;;;;;31.58;20.98;;;-2.80;99.90;;;;;;5012182;28;21092;-75
2021/12/23 04:57:47;;;;;;;29.55;20.95;;;-2.80;99.90;;;;;;5018092;28;20195;-73
2021/12/23 05:00:20;;;;;;;28.83;20.65;;;-2.90;99.90;;;;;;5019789;28;20248;-73
2021/12/23 05:02:48;;;;;;;28.88;21.42;;;-2.90;99.90;;;;;;5012855;28;20198;-71
2021/12/23 05:05:16;;;;;;;29.88;21.27;;;-2.90;99.90;;;;;;5015063;28;20367;-73
2021/12/23 05:07:43;;;;;;;28.60;20.83;;;-2.80;99.90;;;;;;5015468;28;20256;-76
2021/12/23 05:10:12;;;;;;;27.90;19.70;;;-2.80;99.90;;;;;;5007467;28;20257;-72
2021/12/23 05:12:44;;;;;;;29.58;21.73;;;-2.90;99.90;;;;;;5013141;28;20200;-71
2021/12/23 05:15:12;;;;;;;30.33;21.20;;;-2.90;99.90;;;;;;5015306;28;20222;-74
2021/12/23 05:17:39;;;;;;;28.95;19.75;;;-2.90;99.90;;;;;;5014737;28;20199;-72
2021/12/23 05:20:08;;;;;;;28.30;20.38;;;-2.90;99.90;;;;;;5012941;28;20219;-70
2021/12/23 05:22:35;;;;;;;26.85;20.48;;;-2.80;99.90;;;;;;5010646;28;20249;-76
2021/12/23 05:25:02;;;;;;;28.02;20.50;;;-2.80;99.90;;;;;;5004092;28;20202;-76
2021/12/23 05:27:29;;;;;;;29.60;20.73;;;-2.80;99.90;;;;;;5012733;28;20206;-76
2021/12/23 05:29:57;;;;;;;28.23;19.45;;;-2.70;99.90;;;;;;5016643;28;20264;-77
2021/12/23 05:32:25;;;;;;;28.00;19.92;;;-2.70;99.90;;;;;;5013183;28;20313;-76
2021/12/23 05:34:52;;;;;;;28.55;20.75;;;-2.70;99.90;;;;;;5013914;28;20707;-77
2021/12/23 05:37:19;;;;;;;27.88;21.63;;;-2.70;99.90;;;;;;5014575;28;20197;-76
2021/12/23 05:39:46;;;;;;;28.63;20.15;;;-2.70;99.90;;;;;;5015941;28;20309;-75
2021/12/23 05:42:13;;;;;;;29.00;20.75;;;-2.70;99.90;;;;;;5014113;28;20201;-77
2021/12/23 05:44:40;;;;;;;31.48;21.98;;;-2.80;99.90;;;;;;5014298;28;20623;-76
2021/12/23 05:47:08;;;;;;;30.15;20.58;;;-2.80;99.90;;;;;;5016405;28;20210;-76
2021/12/23 05:49:35;;;;;;;28.73;20.42;;;-2.80;99.90;;;;;;5013436;28;20222;-76
2021/12/23 05:52:03;;;;;;;28.85;20.58;;;-2.90;99.90;;;;;;5014365;28;20193;-76
2021/12/23 05:54:29;;;;;;;28.83;20.20;;;-2.90;99.90;;;;;;5016379;28;20222;-76
2021/12/23 05:57:01;;;;;;;32.38;22.17;;;-2.90;99.90;;;;;;5013471;28;20199;-76
2021/12/23 05:59:28;;;;;;;28.75;20.80;;;-2.90;99.90;;;;;;5012056;28;20246;-76
2021/12/23 06:01:56;;;;;;;27.48;20.25;;;-2.90;99.90;;;;;;5016776;28;20199;-76
2021/12/23 06:04:24;;;;;;;29.23;20.55;;;-2.90;99.90;;;;;;5013020;28;20198;-76
2021/12/23 06:06:52;;;;;;;28.40;21.13;;;-2.80;99.90;;;;;;5013825;28;20682;-76
2021/12/23 06:09:19;;;;;;;30.00;20.92;;;-2.90;99.90;;;;;;5012645;28;20202;-76
2021/12/23 06:11:46;;;;;;;29.10;21.27;;;-2.90;99.90;;;;;;5012431;28;20662;-76
2021/12/23 06:14:13;;;;;;;29.33;20.33;;;-2.90;99.90;;;;;;5014063;28;20585;-76
2021/12/23 06:16:40;;;;;;;27.98;20.35;;;-2.80;99.90;;;;;;5013002;28;20723;-76
2021/12/23 06:19:07;;;;;;;29.40;20.92;;;-2.80;99.90;;;;;;5012368;28;20199;-76
2021/12/23 06:21:35;;;;;;;28.10;22.05;;;-2.90;99.90;;;;;;5015590;28;20793;-77
2021/12/23 06:24:04;;;;;;;29.58;20.80;;;-2.90;99.90;;;;;;5013790;28;20237;-76
2021/12/23 06:26:31;;;;;;;29.50;20.25;;;-2.90;99.90;;;;;;5016516;28;20202;-76
2021/12/23 06:28:58;;;;;;;29.80;20.23;;;-3.00;99.90;;;;;;5012652;28;20558;-77
2021/12/23 06:31:25;;;;;;;31.98;20.90;;;-3.10;99.90;;;;;;5012800;28;20322;-77
2021/12/23 06:33:52;;;;;;;28.67;21.38;;;-3.10;99.90;;;;;;5012444;28;20230;-76
2021/12/23 06:36:20;;;;;;;29.13;20.38;;;-3.10;99.90;;;;;;5008498;28;20198;-82
2021/12/23 06:38:49;;;;;;;30.55;21.60;;;-3.10;99.90;;;;;;5009986;28;20191;-76
2021/12/23 06:41:17;;;;;;;31.67;22.55;;;-3.00;99.90;;;;;;5014347;28;20304;-80
2021/12/23 06:43:45;;;;;;;29.10;20.02;;;-3.00;99.90;;;;;;5011325;28;20285;-77
2021/12/23 06:46:12;;;;;;;26.65;20.27;;;-2.90;99.90;;;;;;5013659;28;20223;-76
2021/12/23 06:48:38;;;;;;;28.63;20.30;;;-2.80;99.90;;;;;;5005457;28;20215;-78
2021/12/23 06:51:06;;;;;;;29.23;21.13;;;-2.80;99.90;;;;;;5009207;28;20217;-77
2021/12/23 06:53:33;;;;;;;31.80;21.95;;;-2.70;99.90;;;;;;5010554;28;20313;-78
2021/12/23 06:56:02;;;;;;;29.13;20.02;;;-2.70;99.90;;;;;;5010894;28;20211;-75
2021/12/23 06:58:31;;;;;;;25.85;20.35;;;-2.80;99.90;;;;;;5010717;28;20908;-77
2021/12/23 07:00:58;;;;;;;29.10;20.90;;;-2.80;99.90;;;;;;5016547;28;20222;-78
2021/12/23 07:03:34;;;;;;;33.33;22.02;;;-2.80;99.90;;;;;;5016187;28;20222;-77
2021/12/23 07:06:06;;;;;;;28.80;20.02;;;-2.80;99.90;;;;;;5013321;28;20975;-77
2021/12/23 07:08:36;;;;;;;27.10;19.17;;;-2.80;99.90;;;;;;5017642;28;20205;-77
2021/12/23 07:11:05;;;;;;;26.70;19.73;;;-2.80;99.90;;;;;;5010979;28;20246;-76
2021/12/23 07:13:32;;;;;;;26.90;20.15;;;-2.90;99.90;;;;;;5014971;28;20199;-77
2021/12/23 07:16:01;;;;;;;29.00;19.85;;;-2.90;99.90;;;;;;5011010;28;20273;-77
2021/12/23 07:18:28;;;;;;;31.50;21.38;;;-2.90;99.90;;;;;;5002198;28;20291;-76
2021/12/23 07:20:55;;;;;;;30.80;19.80;;;-3.00;99.90;;;;;;5009728;28;20709;-76
2021/12/23 07:23:22;;;;;;;28.77;20.77;;;-3.00;99.90;;;;;;5015073;28;20217;-77
2021/12/23 07:25:49;;;;;;;29.23;20.85;;;-3.00;99.90;;;;;;4996872;28;20891;-76
2021/12/23 07:28:18;;;;;;;30.35;21.30;;;-3.00;99.90;;;;;;5007396;28;20198;-78
2021/12/23 07:30:45;;;;;;;31.48;21.75;;;-3.00;99.90;;;;;;5005070;28;20218;-77
2021/12/23 07:33:12;;;;;;;27.75;19.52;;;-3.00;99.90;;;;;;5007017;28;20658;-76
2021/12/23 07:35:39;;;;;;;30.58;21.75;;;-3.00;99.90;;;;;;5005726;28;20237;-76
2021/12/23 07:38:07;;;;;;;28.83;20.15;;;-3.00;99.90;;;;;;5007850;28;20202;-76
2021/12/23 07:40:34;;;;;;;29.48;20.35;;;-2.90;99.90;;;;;;5007477;28;20213;-76
2021/12/23 07:43:10;;;;;;;32.47;20.98;;;-2.90;99.90;;;;;;5005671;28;20199;-80
2021/12/23 07:45:39;;;;;;;29.30;21.63;;;-2.90;99.90;;;;;;5007749;28;20190;-76
2021/12/23 07:48:06;;;;;;;28.55;21.25;;;-2.90;99.90;;;;;;5004922;28;20508;-77
2021/12/23 07:50:33;;;;;;;29.75;20.67;;;-2.90;99.90;;;;;;5004617;28;20230;-77
2021/12/23 07:53:00;;;;;;;28.63;21.13;;;-2.80;99.90;;;;;;5005068;28;20203;-83
2021/12/23 07:55:27;;;;;;;29.52;20.48;;;-2.80;99.90;;;;;;5005906;28;20618;-74
2021/12/23 07:57:54;;;;;;;32.78;20.48;;;-2.80;99.90;;;;;;5006089;28;20206;-76
2021/12/23 08:00:21;;;;;;;26.42;19.27;;;-2.70;99.90;;;;;;5006857;28;20300;-76
2021/12/23 08:02:50;;;;;;;31.92;22.60;;;-2.60;99.90;;;;;;5009091;28;20202;-75
2021/12/23 08:05:17;;;;;;;29.25;20.58;;;-2.60;99.90;;;;;;5006884;28;20274;-76
2021/12/23 08:07:44;;;;;;;32.42;20.92;;;-2.60;99.90;;;;;;5008978;28;20289;-76
2021/12/23 08:10:12;;;;;;;30.15;21.75;;;-2.50;99.90;;;;;;5008193;28;20254;-77
2021/12/23 08:12:39;;;;;;;30.50;20.55;;;-2.50;99.90;;;;;;5000291;28;20205;-78
2021/12/23 08:15:07;;;;;;;29.90;20.55;;;-2.40;99.90;;;;;;5008761;28;20276;-74
2021/12/23 08:17:35;;;;;;;29.92;20.95;;;-2.30;99.90;;;;;;5010268;28;20198;-74
2021/12/23 08:20:04;;;;;;;27.88;19.75;;;-2.20;99.90;;;;;;4996828;28;20218;-74
2021/12/23 08:22:32;;;;;;;29.58;20.95;;;-2.10;99.90;;;;;;4992185;28;20348;-77
2021/12/23 08:24:59;;;;;;;28.45;19.98;;;-2.00;99.90;;;;;;5001743;28;20199;-74
2021/12/23 08:27:28;;;;;;;27.55;20.05;;;-2.00;99.90;;;;;;5001520;28;20406;-75
2021/12/23 08:29:56;;;;;;;32.25;21.20;;;-1.90;99.90;;;;;;4998067;28;20226;-76
2021/12/23 08:32:23;;;;;;;28.33;19.75;;;-1.90;99.90;;;;;;5005355;28;20194;-75
2021/12/23 08:34:50;;;;;;;30.73;21.85;;;-1.80;99.90;;;;;;5009300;28;20219;-75
2021/12/23 08:37:19;;;;;;;31.23;21.75;;;-1.80;99.90;;;;;;5006420;28;20195;-76
2021/12/23 08:39:47;;;;;;;29.33;20.25;;;-1.70;99.90;;;;;;5001236;28;20214;-76
2021/12/23 08:42:14;;;;;;;27.77;20.65;;;-1.70;99.90;;;;;;5007996;28;20290;-74
2021/12/23 08:44:41;;;;;;;29.05;20.55;;;-1.60;99.90;;;;;;5011095;28;20230;-74
2021/12/23 08:47:09;;;;;;;28.88;20.15;;;-1.60;99.90;;;;;;5008458;28;20199;-75
2021/12/23 08:49:36;;;;;;;27.65;20.83;;;-1.60;99.90;;;;;;5001062;28;20271;-72
2021/12/23 08:52:03;;;;;;;27.70;19.45;;;-1.50;99.90;;;;;;5010792;28;20259;-76
2021/12/23 08:54:32;;;;;;;27.02;19.10;;;-1.40;99.90;;;;;;5013561;28;20222;-75
2021/12/23 08:56:59;;;;;;;29.85;19.60;;;-1.30;99.90;;;;;;5013010;28;20277;-74
2021/12/23 08:59:26;;;;;;;26.48;20.08;;;-1.30;99.90;;;;;;5012333;28;20215;-73
2021/12/23 09:01:54;;;;;;;26.95;19.50;;;-1.20;99.90;;;;;;5013022;28;20206;-74
2021/12/23 09:04:21;;;;;;;25.55;19.27;;;-1.00;99.90;;;;;;5013961;28;20209;-74
2021/12/23 09:06:48;;;;;;;28.52;19.65;;;-0.80;99.90;;;;;;5006152;28;20290;-74
2021/12/23 09:09:15;;;;;;;27.20;18.77;;;-0.70;99.90;;;;;;5008015;28;20705;-69
2021/12/23 09:11:44;;;;;;;29.00;20.48;;;-0.60;99.90;;;;;;5002068;28;20646;-68
2021/12/23 09:14:11;;;;;;;26.35;18.48;;;-0.50;99.90;;;;;;5010429;28;20190;-70
2021/12/23 09:16:39;;;;;;;26.42;18.75;;;-0.50;99.90;;;;;;5009159;28;20237;-74
2021/12/23 09:19:06;;;;;;;27.75;18.20;;;-0.40;99.90;;;;;;5000395;28;20227;-72
2021/12/23 09:21:33;;;;;;;26.40;18.42;;;-0.40;99.90;;;;;;5008186;28;20253;-73
2021/12/23 09:24:01;;;;;;;29.65;19.50;;;-0.30;99.90;;;;;;5004983;28;20289;-71
2021/12/23 09:26:30;;;;;;;27.95;20.33;;;-0.30;99.90;;;;;;5008896;28;20212;-71
2021/12/23 09:29:05;;;;;;;23.73;17.33;;;-0.30;99.90;;;;;;5008416;28;20222;-73
2021/12/23 09:34:17;;;;;;;26.20;18.90;;;-0.30;99.90;;;;;;5012174;28;20252;-73
2021/12/23 09:36:44;;;;;;;26.23;18.63;;;-0.30;99.90;;;;;;5007218;28;20272;-73
2021/12/23 09:39:12;;;;;;;25.30;18.17;;;-0.30;99.90;;;;;;4998364;28;20233;-75
2021/12/23 09:41:42;;;;;;;26.05;18.70;;;-0.30;99.90;;;;;;5000955;28;20314;-76
2021/12/23 09:44:11;;;;;;;23.42;17.08;;;-0.20;99.90;;;;;;5006154;28;20205;-76
2021/12/23 09:46:40;;;;;;;24.70;18.40;;;-0.10;99.90;;;;;;5008377;28;20218;-75
2021/12/23 09:49:08;;;;;;;25.17;18.88;;;-0.10;99.90;;;;;;5010489;28;20238;-73
2021/12/23 09:51:36;;;;;;;29.05;18.55;;;0.00;99.90;;;;;;4999122;28;20283;-72
2021/12/23 09:54:05;;;;;;;27.73;19.38;;;0.00;99.90;;;;;;5002799;28;20229;-72
2021/12/23 09:56:33;;;;;;;25.35;18.77;;;0.00;99.90;;;;;;5004244;28;20606;-74
2021/12/23 09:59:02;;;;;;;26.77;18.88;;;0.10;99.90;;;;;;5001927;28;20226;-74
2021/12/23 10:01:32;;;;;;;26.02;18.85;;;0.20;99.90;;;;;;5006445;28;20198;-74
2021/12/23 10:03:59;;;;;;;26.27;18.50;;;0.30;99.90;;;;;;4997241;28;20199;-72
2021/12/23 10:06:26;;;;;;;23.05;17.77;;;0.40;99.90;;;;;;4999591;28;20198;-74
2021/12/23 10:08:54;;;;;;;24.98;18.60;;;0.50;99.90;;;;;;5010937;28;20225;-72
2021/12/23 10:11:24;;;;;;;28.05;18.73;;;0.60;99.90;;;;;;4998044;28;20199;-74
2021/12/23 10:30:50;;;;;;;24.80;17.33;;;1.20;99.90;;;;;;4973798;28;20650;-74
2021/12/23 10:33:42;;;;;;;25.33;17.05;;;1.30;99.90;;;;;;5010004;28;20232;-73
2021/12/23 10:38:54;;;;;;;25.13;17.90;;;1.30;99.90;;;;;;5009445;28;20222;-74
2021/12/23 10:41:25;;;;;;;23.17;17.42;;;1.40;99.90;;;;;;5008517;28;20708;-76
2021/12/23 10:43:56;;;;;;;23.75;17.45;;;1.40;99.90;;;;;;5010310;28;20286;-76
2021/12/23 10:46:27;;;;;;;25.17;18.13;;;1.40;99.90;;;;;;5004355;28;20205;-77
2021/12/23 10:49:09;;;;;;;22.92;17.15;;;1.40;99.90;;;;;;5007148;28;20246;-73
2021/12/23 10:52:00;;;;;;;21.60;16.95;;;1.40;99.90;;;;;;5008424;28;20190;-75
2021/12/23 11:00:13;;;;;;;21.77;16.73;;;1.50;99.90;;;;;;4996050;28;20265;-76
2021/12/23 11:02:41;;;;;;;22.40;17.27;;;1.60;99.90;;;;;;5004183;28;20621;-74
2021/12/23 11:05:15;;;;;;;25.38;17.17;;;1.70;99.90;;;;;;5004546;28;20199;-74
2021/12/23 11:07:53;;;;;;;24.00;17.60;;;1.80;99.90;;;;;;5000207;28;20206;-74
2021/12/23 11:10:36;;;;;;;22.15;16.98;;;2.00;99.90;;;;;;5001051;28;20205;-74
2021/12/23 11:30:41;;;;;;;20.52;16.02;;;2.80;99.90;;;;;;5006016;28;20309;-74
2021/12/23 11:36:05;;;;;;;19.33;15.68;;;3.10;99.90;;;;;;4973150;28;20221;-75
2021/12/23 11:38:47;;;;;;;20.67;17.10;;;3.20;99.90;;;;;;5005143;28;20222;-73
2021/12/23 11:41:19;;;;;;;22.52;16.77;;;3.20;99.90;;;;;;4990912;28;20234;-73
2021/12/23 11:43:49;;;;;;;20.45;17.08;;;3.20;99.90;;;;;;5009290;28;20203;-73
2021/12/23 11:46:21;;;;;;;21.75;16.90;;;3.10;99.90;;;;;;5006757;28;20200;-74
2021/12/23 11:48:52;;;;;;;22.55;16.25;;;3.10;99.90;;;;;;5007498;28;20222;-74
2021/12/23 11:51:28;;;;;;;22.52;17.00;;;3.10;99.90;;;;;;5005556;28;20199;-74
2021/12/23 11:53:57;;;;;;;19.60;15.60;;;3.20;99.90;;;;;;5009149;28;20207;-73
2021/12/23 11:56:25;;;;;;;20.83;16.98;;;3.40;99.90;;;;;;5002929;28;20310;-74
2021/12/23 11:58:57;;;;;;;22.10;17.17;;;3.50;99.90;;;;;;5007083;28;20225;-74
2021/12/23 12:01:28;;;;;;;24.08;15.73;;;3.60;99.90;;;;;;5010666;28;20202;-68
2021/12/23 12:03:58;;;;;;;23.25;18.27;;;3.70;99.90;;;;;;5008241;28;20214;-70
2021/12/23 12:06:28;;;;;;;19.20;15.88;;;3.90;99.90;;;;;;5002696;28;20278;-74
2021/12/23 12:09:14;;;;;;;24.02;17.25;;;3.80;99.90;;;;;;5007486;28;20238;-71
2021/12/23 12:11:42;;;;;;;21.17;17.42;;;3.90;99.90;;;;;;4989372;28;20643;-72
2021/12/23 12:14:34;;;;;;;21.70;16.98;;;4.00;99.90;;;;;;4996383;28;20191;-75
2021/12/23 12:17:37;;;;;;;21.23;15.48;;;4.10;99.90;;;;;;4993547;28;20317;-72
2021/12/23 12:20:21;;;;;;;22.23;16.50;;;4.30;99.90;;;;;;4997175;28;20681;-72
2021/12/23 12:23:00;;;;;;;20.80;15.88;;;4.40;99.90;;;;;;5000231;28;20281;-72
2021/12/23 12:25:57;;;;;;;18.80;16.08;;;4.30;99.90;;;;;;4999096;28;20206;-73
2021/12/23 12:28:40;;;;;;;19.55;15.77;;;4.40;99.90;;;;;;5004917;28;20300;-73
2021/12/23 12:31:09;;;;;;;20.10;16.30;;;4.50;99.90;;;;;;5004778;28;20673;-72
2021/12/23 12:33:49;;;;;;;19.33;15.45;;;4.50;99.90;;;;;;5008602;28;20197;-72
2021/12/23 12:36:17;;;;;;;20.33;16.50;;;4.60;99.90;;;;;;5006600;28;20253;-74
2021/12/23 12:38:46;;;;;;;16.90;14.90;;;4.70;99.90;;;;;;4996103;28;20707;-73
2021/12/23 12:41:17;;;;;;;19.60;16.00;;;4.80;99.90;;;;;;5001961;28;20203;-74
2021/12/23 12:43:53;;;;;;;19.83;15.52;;;4.70;99.90;;;;;;5008182;28;20194;-73
2021/12/23 12:47:05;;;;;;;18.00;15.25;;;4.70;99.90;;;;;;5003380;28;20206;-73
2021/12/23 12:49:37;;;;;;;17.85;15.40;;;4.70;99.90;;;;;;4986546;28;20292;-73
2021/12/23 12:52:19;;;;;;;16.95;14.88;;;4.70;99.90;;;;;;4994216;28;20237;-73
2021/12/23 12:54:53;;;;;;;20.05;15.23;;;4.80;99.90;;;;;;5019548;28;20263;-73
2021/12/23 12:57:24;;;;;;;17.65;14.77;;;4.90;99.90;;;;;;5016038;28;20226;-73
2021/12/23 12:59:52;;;;;;;18.80;15.07;;;4.90;99.90;;;;;;5008115;28;20242;-73
2021/12/23 13:02:22;;;;;;;19.38;15.10;;;4.90;99.90;;;;;;5007685;28;20220;-73
2021/12/23 13:04:53;;;;;;;20.80;15.18;;;4.80;99.90;;;;;;5018276;28;20285;-73
2021/12/23 13:07:26;;;;;;;17.60;14.82;;;4.80;99.90;;;;;;5005643;28;20198;-73
2021/12/23 13:09:58;;;;;;;20.98;15.20;;;4.80;99.90;;;;;;4994660;28;20724;-73
2021/12/23 13:12:47;;;;;;;18.13;14.93;;;4.80;99.90;;;;;;5005323;28;20917;-73
2021/12/23 13:15:19;;;;;;;17.35;15.23;;;4.80;99.90;;;;;;5006924;28;20898;-75
2021/12/23 13:17:54;;;;;;;17.55;13.80;;;4.80;99.90;;;;;;5012718;28;20212;-73
2021/12/23 13:20:43;;;;;;;18.15;14.93;;;4.80;99.90;;;;;;5010810;28;20217;-72
2021/12/23 13:23:15;;;;;;;20.55;15.43;;;4.80;99.90;;;;;;5012025;28;20604;-74
2021/12/23 13:25:52;;;;;;;17.45;14.35;;;4.90;99.90;;;;;;5011597;28;21003;-75
2021/12/23 13:28:30;;;;;;;18.02;13.88;;;4.90;99.90;;;;;;5001444;28;20310;-75
2021/12/23 13:30:57;;;;;;;18.08;15.32;;;4.90;99.90;;;;;;5012950;28;20199;-75